URKK 200900Z 16002MPS 140V200 9999 SCT030CB 19/14 Q1017 R05R/CLRD70 NOSIG RMK QFE759
QNH:(hPa/inHg/mmHg)1017 / 30.03 / 763
QFE:(hPa/inHg/mmHg)1013 / 29.90 / 759
Temperature19
Dew Point14
Visibility> 10000
Weather
Cloud CoverSCT (3000);
Transition Altitude4000 ft.
Transition LevelFL50
SQUAWK